createdAt,value
2022-10-28T00:01:17.103Z,15.48
2022-10-28T00:03:47.141Z,15.19
2022-10-28T00:06:17.301Z,15.32
2022-10-28T00:08:46.168Z,15.39
2022-10-28T00:11:17.065Z,15.53
2022-10-28T00:13:46.437Z,15.51
2022-10-28T00:16:17.666Z,15.48
2022-10-28T00:18:46.188Z,15.64
2022-10-28T00:21:15.851Z,15.30
2022-10-28T00:23:44.139Z,15.33
2022-10-28T00:26:14.739Z,15.37
2022-10-28T00:28:43.763Z,15.41
2022-10-28T00:31:14.317Z,14.70
2022-10-28T00:33:43.987Z,14.29
2022-10-28T00:36:15.142Z,14.90
2022-10-28T00:38:44.926Z,15.17
2022-10-28T00:41:15.432Z,15.25
2022-10-28T00:43:46.001Z,15.08
2022-10-28T00:46:21.263Z,15.12
2022-10-28T00:48:55.835Z,14.95
2022-10-28T00:51:26.563Z,15.05
2022-10-28T00:53:57.097Z,14.93
2022-10-28T00:59:02.505Z,14.70
2022-10-28T01:01:30.952Z,14.70
2022-10-28T01:04:02.778Z,14.69
2022-10-28T01:06:31.658Z,14.69
2022-10-28T01:09:00.352Z,14.55
2022-10-28T01:11:46.836Z,14.71
2022-10-28T01:14:39.023Z,14.65
2022-10-28T01:17:28.777Z,14.38
2022-10-28T01:20:48.304Z,14.57
2022-10-28T01:23:27.420Z,14.46
2022-10-28T01:26:13.549Z,14.51
2022-10-28T01:29:04.314Z,14.65
2022-10-28T01:31:41.803Z,14.52
2022-10-28T01:34:19.266Z,14.34
2022-10-28T01:36:57.655Z,14.20
2022-10-28T01:39:34.233Z,13.94
2022-10-28T01:42:14.894Z,13.62
2022-10-28T01:44:53.125Z,13.87
2022-10-28T01:47:26.763Z,14.09
2022-10-28T01:49:59.709Z,14.30
2022-10-28T01:52:31.161Z,14.26
2022-10-28T01:55:04.304Z,14.24
2022-10-28T01:57:36.220Z,13.99
2022-10-28T02:00:05.516Z,13.60
2022-10-28T02:02:38.662Z,14.11
2022-10-28T02:05:29.167Z,14.17
2022-10-28T02:08:04.932Z,14.16
2022-10-28T02:10:43.729Z,13.38
2022-10-28T02:13:15.773Z,12.81
2022-10-28T02:15:53.228Z,13.19
2022-10-28T02:18:28.443Z,13.66
2022-10-28T02:21:02.553Z,13.74
2022-10-28T02:23:44.379Z,13.63
2022-10-28T02:26:19.466Z,13.97
2022-10-28T02:28:56.170Z,14.10
2022-10-28T02:31:28.020Z,14.22
2022-10-28T02:34:02.972Z,13.80
2022-10-28T02:36:35.981Z,14.24
2022-10-28T02:39:07.581Z,13.56
2022-10-28T02:41:41.496Z,13.06
2022-10-28T02:44:13.189Z,13.15
2022-10-28T02:46:46.372Z,13.24
2022-10-28T02:49:16.916Z,13.47
2022-10-28T02:51:48.051Z,13.14
2022-10-28T02:54:18.668Z,13.41
2022-10-28T02:56:52.791Z,13.70
2022-10-28T02:59:21.066Z,13.56
2022-10-28T03:01:49.376Z,13.70
2022-10-28T03:04:19.080Z,12.84
2022-10-28T03:06:47.337Z,12.78
2022-10-28T03:09:15.735Z,13.06
2022-10-28T03:11:43.947Z,13.30
2022-10-28T03:14:14.655Z,13.23
2022-10-28T03:16:43.931Z,13.27
2022-10-28T03:19:12.185Z,13.51
2022-10-28T03:21:41.944Z,13.58
2022-10-28T03:24:10.255Z,13.49
2022-10-28T03:26:38.524Z,13.25
2022-10-28T03:29:06.832Z,13.16
2022-10-28T03:31:35.400Z,12.97
2022-10-28T03:34:03.640Z,13.26
2022-10-28T03:36:31.867Z,13.42
2022-10-28T03:39:01.664Z,13.18
2022-10-28T03:41:29.867Z,13.20
2022-10-28T03:43:58.288Z,13.24
2022-10-28T03:46:26.512Z,13.38
2022-10-28T03:48:54.904Z,13.34
2022-10-28T03:51:23.156Z,13.27
2022-10-28T03:54:08.543Z,13.16
2022-10-28T03:56:40.637Z,13.11
2022-10-28T03:59:10.667Z,13.34
2022-10-28T04:01:38.985Z,12.98
2022-10-28T04:04:07.737Z,12.77
2022-10-28T04:06:35.961Z,12.50
2022-10-28T04:09:04.165Z,12.60
2022-10-28T04:11:32.488Z,12.71
2022-10-28T04:14:02.124Z,12.77
2022-10-28T04:16:30.312Z,12.72
2022-10-28T04:18:58.749Z,12.61
2022-10-28T04:21:27.233Z,12.61
2022-10-28T04:23:55.524Z,12.82
2022-10-28T04:26:23.763Z,12.74
2022-10-28T04:28:53.192Z,12.72
2022-10-28T04:31:22.817Z,12.74
2022-10-28T04:33:50.988Z,12.72
2022-10-28T04:36:19.326Z,12.77
2022-10-28T04:38:47.583Z,12.97
2022-10-28T04:41:16.340Z,13.13
2022-10-28T04:43:44.621Z,13.18
2022-10-28T04:46:12.826Z,13.02
2022-10-28T04:48:42.494Z,12.93
2022-10-28T04:51:10.684Z,13.00
2022-10-28T04:53:38.900Z,12.92
2022-10-28T04:56:07.679Z,12.74
2022-10-28T04:58:35.978Z,11.75
2022-10-28T05:01:07.562Z,11.65
2022-10-28T05:03:36.121Z,10.68
2022-10-28T05:06:06.052Z,11.74
2022-10-28T05:08:34.282Z,11.78
2022-10-28T05:11:02.549Z,12.00
2022-10-28T05:13:30.852Z,12.17
2022-10-28T05:15:59.084Z,11.82
2022-10-28T05:18:27.351Z,11.01
2022-10-28T05:20:55.927Z,11.56
2022-10-28T05:23:29.878Z,11.78
2022-10-28T05:25:59.202Z,12.33
2022-10-28T05:28:27.488Z,12.44
2022-10-28T05:30:55.878Z,12.47
2022-10-28T05:33:24.421Z,13.10
2022-10-28T05:35:52.834Z,13.41
2022-10-28T05:38:21.053Z,13.43
2022-10-28T05:40:50.674Z,13.56
2022-10-28T05:43:18.875Z,13.43
2022-10-28T05:45:54.183Z,13.67
2022-10-28T05:48:22.785Z,14.12
2022-10-28T05:50:51.095Z,14.45
2022-10-28T05:53:19.380Z,14.53
2022-10-28T05:55:48.015Z,15.00
2022-10-28T05:58:17.851Z,14.97
2022-10-28T06:00:46.156Z,15.08
2022-10-28T06:03:14.488Z,15.33
2022-10-28T06:05:45.083Z,15.60
2022-10-28T06:08:14.917Z,16.20
2022-10-28T06:10:51.838Z,15.77
2022-10-28T06:13:22.928Z,16.29
2022-10-28T06:15:52.580Z,16.74
2022-10-28T06:18:21.199Z,16.77
2022-10-28T06:20:53.902Z,17.22
2022-10-28T06:23:22.678Z,17.36
2022-10-28T06:25:51.142Z,17.80
2022-10-28T06:28:19.407Z,17.46
2022-10-28T06:30:49.073Z,17.34
2022-10-28T06:33:17.639Z,18.01
2022-10-28T06:35:45.983Z,18.27
2022-10-28T06:38:14.277Z,18.45
2022-10-28T06:40:42.509Z,18.77
2022-10-28T06:43:13.016Z,19.01
2022-10-28T06:45:41.262Z,19.31
2022-10-28T06:48:12.683Z,19.97
2022-10-28T06:50:41.289Z,19.80
2022-10-28T06:53:10.524Z,19.81
2022-10-28T06:55:38.745Z,19.99
2022-10-28T06:58:07.088Z,19.84
2022-10-28T07:00:35.337Z,20.22
2022-10-28T07:03:03.627Z,20.35
2022-10-28T07:05:33.268Z,20.13
2022-10-28T07:08:01.489Z,20.56
2022-10-28T07:10:29.831Z,20.80
2022-10-28T07:12:58.136Z,21.99
2022-10-28T07:15:26.665Z,21.87
2022-10-28T07:17:55.161Z,20.26
2022-10-28T07:20:24.336Z,21.23
2022-10-28T07:22:58.414Z,21.75
2022-10-28T07:25:26.664Z,21.86
2022-10-28T07:27:55.486Z,23.04
2022-10-28T07:30:24.147Z,23.16
2022-10-28T07:32:52.811Z,23.27
2022-10-28T07:35:21.664Z,22.88
2022-10-28T07:37:49.935Z,22.95
2022-10-28T07:40:19.815Z,23.24
2022-10-28T07:42:48.054Z,23.80
2022-10-28T07:45:16.877Z,24.24
2022-10-28T07:47:45.492Z,24.47
2022-10-28T07:50:14.034Z,24.14
2022-10-28T07:52:42.446Z,24.56
2022-10-28T07:55:12.030Z,24.11
2022-10-28T07:57:41.755Z,24.13
2022-10-28T08:00:10.963Z,24.75
2022-10-28T08:02:39.296Z,24.91
2022-10-28T08:05:08.173Z,25.04
2022-10-28T08:07:38.637Z,25.53
2022-10-28T08:10:08.297Z,24.78
2022-10-28T08:12:36.650Z,24.75
2022-10-28T08:15:09.587Z,25.15
2022-10-28T08:17:37.830Z,24.98
2022-10-28T08:20:07.162Z,25.82
2022-10-28T08:22:35.363Z,26.12
2022-10-28T08:25:03.583Z,26.91
2022-10-28T08:27:32.176Z,27.81
2022-10-28T08:30:00.440Z,26.84
2022-10-28T08:32:30.100Z,26.96
2022-10-28T08:34:58.295Z,27.10
2022-10-28T08:37:26.657Z,27.36
2022-10-28T08:39:54.950Z,26.79
2022-10-28T08:42:36.603Z,27.05
2022-10-28T08:45:19.976Z,27.31
2022-10-28T08:47:59.324Z,28.21
2022-10-28T08:50:31.879Z,28.28
2022-10-28T08:53:02.622Z,28.07
2022-10-28T08:55:34.810Z,28.33
2022-10-28T08:58:09.683Z,27.85
2022-10-28T09:00:38.496Z,29.27
2022-10-28T09:03:22.450Z,29.38
2022-10-28T09:05:57.746Z,30.59
2022-10-28T09:08:28.806Z,29.52
2022-10-28T09:11:08.162Z,29.40
2022-10-28T09:13:49.484Z,29.62
2022-10-28T09:16:29.826Z,29.02
2022-10-28T09:19:06.103Z,29.49
2022-10-28T09:21:41.446Z,30.32
2022-10-28T09:24:20.306Z,30.24
2022-10-28T09:26:59.788Z,30.87
2022-10-28T09:29:44.257Z,32.16
2022-10-28T09:32:23.124Z,32.45
2022-10-28T09:34:58.941Z,32.18
2022-10-28T09:37:32.034Z,31.20
2022-10-28T09:40:06.350Z,30.69
2022-10-28T09:42:42.406Z,30.69
2022-10-28T09:45:16.310Z,31.06
2022-10-28T09:47:57.466Z,31.26
2022-10-28T09:50:32.021Z,31.61
2022-10-28T09:53:07.373Z,31.31
2022-10-28T09:55:35.880Z,31.63
2022-10-28T09:58:04.851Z,31.82
2022-10-28T10:00:33.742Z,31.71
2022-10-28T10:03:02.101Z,31.80
2022-10-28T10:05:34.522Z,31.69
2022-10-28T10:08:06.053Z,31.58
2022-10-28T10:10:44.863Z,32.08
2022-10-28T10:13:14.717Z,31.56
2022-10-28T10:15:47.767Z,32.17
2022-10-28T10:18:21.291Z,32.24
2022-10-28T10:20:53.073Z,32.41
2022-10-28T10:23:28.564Z,33.43
2022-10-28T10:26:00.371Z,34.15
2022-10-28T10:28:29.888Z,32.58
2022-10-28T10:31:01.037Z,32.85
2022-10-28T10:33:34.208Z,34.34
2022-10-28T10:36:06.695Z,33.78
2022-10-28T10:38:36.622Z,33.73
2022-10-28T10:41:05.167Z,33.48
2022-10-28T10:43:34.480Z,33.38
2022-10-28T10:46:05.555Z,33.99
2022-10-28T10:48:36.565Z,33.61
2022-10-28T10:51:13.943Z,34.00
2022-10-28T10:53:42.332Z,34.21
2022-10-28T10:56:13.270Z,35.50
2022-10-28T10:58:51.766Z,34.47
2022-10-28T11:01:22.832Z,34.12
2022-10-28T11:03:55.189Z,33.95
2022-10-28T11:06:28.228Z,34.89
2022-10-28T11:08:59.682Z,34.48
2022-10-28T11:11:35.638Z,32.32
2022-10-28T11:14:07.241Z,33.32
2022-10-28T11:16:35.788Z,33.51
2022-10-28T11:19:21.087Z,32.96
2022-10-28T11:22:05.157Z,33.59
2022-10-28T11:24:47.975Z,34.48
2022-10-28T11:27:28.936Z,33.92
2022-10-28T11:30:00.472Z,32.82
2022-10-28T11:32:54.645Z,33.45
2022-10-28T11:35:44.093Z,33.44
2022-10-28T11:38:28.246Z,34.26
2022-10-28T11:41:13.741Z,34.83
2022-10-28T11:43:54.644Z,33.78
2022-10-28T11:46:46.446Z,34.03
2022-10-28T11:49:46.781Z,32.31
2022-10-28T11:52:26.949Z,33.70
2022-10-28T11:55:09.043Z,33.96
2022-10-28T11:57:48.858Z,33.29
2022-10-28T12:00:28.941Z,33.32
2022-10-28T12:03:13.725Z,31.82
2022-10-28T12:05:48.493Z,33.27
2022-10-28T12:08:37.965Z,33.19
2022-10-28T12:11:18.396Z,31.81
2022-10-28T12:13:58.632Z,32.40
2022-10-28T12:16:34.350Z,33.24
2022-10-28T12:19:10.228Z,33.33
2022-10-28T12:21:42.908Z,33.80
2022-10-28T12:24:16.571Z,33.59
2022-10-28T12:26:51.164Z,34.08
2022-10-28T12:29:24.454Z,33.64
2022-10-28T12:31:57.290Z,33.29
2022-10-28T12:34:33.818Z,32.30
2022-10-28T12:37:06.625Z,31.25
2022-10-28T12:39:39.806Z,32.10
2022-10-28T12:42:15.916Z,31.96
2022-10-28T12:44:47.739Z,33.26
2022-10-28T12:47:26.662Z,32.34
2022-10-28T12:50:11.795Z,33.75
2022-10-28T12:52:47.984Z,34.08
2022-10-28T12:55:38.841Z,31.53
2022-10-28T12:58:17.999Z,30.95
2022-10-28T13:00:50.546Z,29.71
2022-10-28T13:03:19.004Z,29.33
2022-10-28T13:05:53.079Z,30.02
2022-10-28T13:08:52.748Z,30.49
2022-10-28T13:12:05.827Z,29.09
2022-10-28T13:15:13.600Z,29.32
2022-10-28T13:17:56.691Z,29.69
2022-10-28T13:20:39.856Z,28.71
2022-10-28T13:23:22.827Z,30.28
2022-10-28T13:25:59.811Z,30.19
2022-10-28T13:28:33.045Z,30.08
2022-10-28T13:31:05.020Z,30.02
2022-10-28T13:33:36.527Z,29.18
2022-10-28T13:36:19.979Z,29.75
2022-10-28T13:38:53.979Z,28.93
2022-10-28T13:41:32.203Z,28.41
2022-10-28T13:44:22.803Z,28.77
2022-10-28T13:47:32.776Z,28.89
2022-10-28T13:50:41.889Z,28.40
2022-10-28T13:53:40.589Z,27.92
2022-10-28T13:56:33.447Z,28.22
2022-10-28T13:59:05.198Z,28.01
2022-10-28T14:05:00.211Z,27.63
2022-10-28T14:07:31.513Z,28.03
2022-10-28T14:10:20.073Z,27.39
2022-10-28T14:12:53.498Z,28.08
2022-10-28T14:15:25.760Z,28.47
2022-10-28T14:18:09.954Z,28.88
2022-10-28T14:21:00.944Z,29.21
2022-10-28T14:23:52.192Z,29.28
2022-10-28T14:26:20.458Z,29.03
2022-10-28T14:28:53.386Z,27.61
2022-10-28T14:31:37.004Z,26.10
2022-10-28T14:34:44.716Z,25.16
2022-10-28T14:40:20.748Z,23.92
2022-10-28T14:43:15.543Z,23.85
2022-10-28T14:45:55.887Z,23.06
2022-10-28T14:48:41.675Z,22.64
2022-10-28T14:51:14.084Z,22.42
2022-10-28T14:53:45.376Z,21.95
2022-10-28T14:58:58.750Z,21.62
2022-10-28T15:01:29.348Z,21.33
2022-10-28T15:04:02.230Z,20.42
2022-10-28T15:06:34.329Z,20.75
2022-10-28T15:09:17.650Z,20.74
2022-10-28T15:11:48.980Z,20.38
2022-10-28T15:14:26.598Z,20.07
2022-10-28T15:16:55.809Z,20.10
2022-10-28T15:19:27.377Z,20.58
2022-10-28T15:22:07.210Z,19.35
2022-10-28T15:24:36.942Z,19.28
2022-10-28T15:27:05.306Z,18.98
2022-10-28T15:29:33.751Z,19.20
2022-10-28T15:32:12.407Z,19.33
2022-10-28T15:34:41.095Z,19.04
2022-10-28T15:37:10.288Z,19.62
2022-10-28T15:39:40.851Z,20.24
2022-10-28T15:42:31.869Z,20.37
2022-10-28T15:45:00.865Z,18.94
2022-10-28T15:47:34.558Z,20.22
2022-10-28T15:50:23.386Z,19.92
2022-10-28T15:52:53.686Z,20.09
2022-10-28T15:56:02.423Z,20.35
2022-10-28T15:58:39.855Z,20.38
2022-10-28T16:01:11.343Z,20.03
2022-10-28T16:03:44.852Z,19.47
2022-10-28T16:06:26.165Z,19.41
2022-10-28T16:09:18.848Z,19.37
2022-10-28T16:11:51.367Z,19.83
2022-10-28T16:14:33.782Z,19.99
2022-10-28T16:17:15.622Z,20.03
2022-10-28T16:19:48.018Z,20.13
2022-10-28T16:22:18.506Z,20.19
2022-10-28T16:24:47.287Z,20.02
2022-10-28T16:27:20.133Z,20.01
2022-10-28T16:29:48.563Z,19.95
2022-10-28T16:32:18.711Z,20.08
2022-10-28T16:34:46.995Z,19.75
2022-10-28T16:37:22.274Z,19.90
2022-10-28T16:39:50.846Z,19.71
2022-10-28T16:42:21.724Z,19.13
2022-10-28T16:44:50.330Z,18.15
2022-10-28T16:47:20.263Z,17.25
2022-10-28T16:49:54.133Z,17.45
2022-10-28T16:52:27.993Z,17.50
2022-10-28T16:54:56.586Z,17.47
2022-10-28T16:57:26.787Z,17.38
2022-10-28T16:59:55.221Z,17.51
2022-10-28T17:02:27.156Z,17.78
2022-10-28T17:04:55.685Z,18.15
2022-10-28T17:07:24.059Z,18.66
2022-10-28T17:09:53.150Z,18.87
2022-10-28T17:12:24.240Z,18.52
2022-10-28T17:14:54.416Z,18.70
2022-10-28T17:17:22.701Z,18.42
2022-10-28T17:19:51.221Z,17.55
2022-10-28T17:22:19.527Z,17.30
2022-10-28T17:24:47.746Z,16.87
2022-10-28T17:27:16.091Z,16.67
2022-10-28T17:29:44.411Z,16.85
2022-10-28T17:32:14.120Z,16.72
2022-10-28T17:34:42.369Z,16.89
2022-10-28T17:37:10.881Z,17.02
2022-10-28T17:39:39.237Z,17.11
2022-10-28T17:42:07.663Z,17.55
2022-10-28T17:44:36.699Z,17.76
2022-10-28T17:47:05.025Z,17.49
2022-10-28T17:49:36.585Z,17.51
2022-10-28T17:52:04.921Z,17.68
2022-10-28T17:54:33.307Z,17.87
2022-10-28T17:57:01.643Z,17.82
2022-10-28T17:59:29.945Z,17.78
2022-10-28T18:01:58.319Z,17.75
2022-10-28T18:04:26.932Z,17.74
2022-10-28T18:06:58.196Z,17.56
2022-10-28T18:09:27.802Z,17.19
2022-10-28T18:11:56.026Z,17.52
2022-10-28T18:14:24.278Z,17.43
2022-10-28T18:16:52.503Z,17.19
2022-10-28T18:19:20.881Z,17.26
2022-10-28T18:21:49.473Z,17.29
2022-10-28T18:24:21.934Z,16.40
2022-10-28T18:26:56.668Z,16.06
2022-10-28T18:29:25.045Z,16.10
2022-10-28T18:31:53.314Z,15.65
2022-10-28T18:34:23.842Z,15.19
2022-10-28T18:36:52.217Z,15.12
2022-10-28T18:39:21.879Z,15.24
2022-10-28T18:41:51.571Z,15.10
2022-10-28T18:44:21.785Z,15.25
2022-10-28T18:46:51.412Z,15.80
2022-10-28T18:49:19.662Z,15.48
2022-10-28T18:51:47.974Z,15.63
2022-10-28T18:54:16.223Z,15.86
2022-10-28T18:56:47.970Z,15.43
2022-10-28T18:59:16.941Z,15.20
2022-10-28T19:01:47.122Z,15.22
2022-10-28T19:04:15.879Z,15.19
2022-10-28T19:06:44.511Z,15.09
2022-10-28T19:09:12.742Z,14.99
2022-10-28T19:11:41.035Z,14.79
2022-10-28T19:14:11.110Z,14.70
2022-10-28T19:16:39.361Z,15.18
2022-10-28T19:19:08.212Z,15.35
2022-10-28T19:21:36.825Z,14.99
2022-10-28T19:24:05.684Z,14.94
2022-10-28T19:26:35.001Z,15.54
2022-10-28T19:29:05.456Z,15.06
2022-10-28T19:31:37.274Z,15.11
2022-10-28T19:34:10.905Z,15.04
2022-10-28T19:36:39.600Z,14.84
2022-10-28T19:39:10.510Z,14.97
2022-10-28T19:41:39.859Z,14.80
2022-10-28T19:44:08.092Z,14.77
2022-10-28T19:46:38.158Z,14.81
2022-10-28T19:49:07.533Z,15.07
2022-10-28T19:51:37.996Z,15.70
2022-10-28T19:54:10.767Z,15.70
2022-10-28T19:56:39.994Z,15.93
2022-10-28T19:59:08.642Z,16.22
2022-10-28T20:01:39.807Z,16.24
2022-10-28T20:04:09.954Z,16.24
2022-10-28T20:06:39.934Z,16.20
2022-10-28T20:09:08.496Z,16.09
2022-10-28T20:11:39.549Z,16.14
2022-10-28T20:14:10.822Z,16.10
2022-10-28T20:16:42.787Z,16.02
2022-10-28T20:19:11.757Z,15.25
2022-10-28T20:21:40.974Z,15.43
2022-10-28T20:24:09.698Z,14.80
2022-10-28T20:26:39.491Z,15.74
2022-10-28T20:29:09.985Z,15.79
2022-10-28T20:31:39.185Z,15.74
2022-10-28T20:34:09.465Z,15.56
2022-10-28T20:36:40.658Z,15.35
2022-10-28T20:39:13.253Z,14.78
2022-10-28T20:41:43.030Z,14.38
2022-10-28T20:44:14.100Z,13.22
2022-10-28T20:46:42.757Z,14.16
2022-10-28T20:49:13.402Z,14.58
2022-10-28T20:51:42.543Z,14.89
2022-10-28T20:54:10.745Z,15.00
2022-10-28T20:56:40.441Z,14.54
2022-10-28T20:59:09.242Z,14.84
2022-10-28T21:01:39.365Z,14.88
2022-10-28T21:04:10.232Z,15.09
2022-10-28T21:06:40.249Z,15.08
2022-10-28T21:09:09.024Z,15.04
2022-10-28T21:11:37.407Z,14.36
2022-10-28T21:14:05.669Z,13.80
2022-10-28T21:16:34.887Z,13.80
2022-10-28T21:19:03.378Z,14.23
2022-10-28T21:21:32.144Z,14.50
2022-10-28T21:24:01.916Z,14.04
2022-10-28T21:26:30.190Z,14.29
2022-10-28T21:28:58.438Z,13.73
2022-10-28T21:31:26.926Z,14.00
2022-10-28T21:33:55.189Z,14.08
2022-10-28T21:36:23.632Z,14.12
2022-10-28T21:38:55.464Z,14.16
2022-10-28T21:41:25.945Z,14.16
2022-10-28T21:43:54.923Z,14.25
2022-10-28T21:46:24.163Z,14.18
2022-10-28T21:48:53.356Z,13.99
2022-10-28T21:51:21.601Z,13.99
2022-10-28T21:53:49.900Z,13.79
2022-10-28T21:56:20.197Z,13.49
2022-10-28T21:58:51.206Z,13.75
2022-10-28T22:01:21.720Z,13.93
2022-10-28T22:03:50.508Z,13.94
2022-10-28T22:06:18.744Z,13.94
2022-10-28T22:08:47.125Z,13.89
2022-10-28T22:11:17.071Z,13.80
2022-10-28T22:13:45.974Z,13.86
2022-10-28T22:16:17.182Z,13.66
2022-10-28T22:18:45.947Z,13.83
2022-10-28T22:21:16.239Z,13.86
2022-10-28T22:23:44.467Z,13.07
2022-10-28T22:26:15.719Z,13.45
2022-10-28T22:28:44.276Z,13.45
2022-10-28T22:31:16.637Z,13.56
2022-10-28T22:36:20.076Z,13.44
2022-10-28T22:38:48.746Z,13.40
2022-10-28T22:41:19.090Z,13.48
2022-10-28T22:43:50.440Z,13.52
2022-10-28T22:46:20.537Z,13.41
2022-10-28T22:48:49.301Z,13.19
2022-10-28T22:51:18.202Z,12.84
2022-10-28T22:53:46.967Z,12.23
2022-10-28T22:56:17.238Z,11.95
2022-10-28T22:58:45.408Z,11.42
2022-10-28T23:01:15.667Z,11.81
2022-10-28T23:03:46.857Z,12.34
2022-10-28T23:06:16.480Z,12.19
2022-10-28T23:08:46.031Z,12.06
2022-10-28T23:11:16.138Z,12.18
2022-10-28T23:13:44.616Z,12.51
2022-10-28T23:16:14.822Z,12.44
2022-10-28T23:18:44.172Z,12.55
2022-10-28T23:21:16.328Z,11.80
2022-10-28T23:23:49.814Z,11.93
2022-10-28T23:26:21.353Z,12.12
2022-10-28T23:28:52.968Z,12.27
2022-10-28T23:31:22.088Z,12.42
2022-10-28T23:33:50.951Z,12.57
2022-10-28T23:36:20.753Z,12.50
2022-10-28T23:38:49.040Z,12.34
2022-10-28T23:41:18.977Z,11.77
2022-10-28T23:43:48.865Z,11.98
2022-10-28T23:46:17.456Z,12.19
2022-10-28T23:48:45.694Z,11.99
2022-10-28T23:51:14.174Z,11.22
2022-10-28T23:53:43.830Z,10.89
2022-10-28T23:56:12.062Z,10.75
2022-10-28T23:58:40.318Z,11.21
